sensor_id;sensor_type;location;lat;lon;timestamp;temperature;humidity
25504;DHT22;13410;52.114;5.718;2023-10-13T00:00:26;21.90;99.90
25504;DHT22;13410;52.114;5.718;2023-10-13T00:02:57;21.80;99.90
25504;DHT22;13410;52.114;5.718;2023-10-13T00:05:27;21.80;99.90
25504;DHT22;13410;52.114;5.718;2023-10-13T00:07:53;21.80;99.90
25504;DHT22;13410;52.114;5.718;2023-10-13T00:10:19;21.80;99.90
25504;DHT22;13410;52.114;5.718;2023-10-13T00:12:45;21.80;99.90
25504;DHT22;13410;52.114;5.718;2023-10-13T00:15:17;21.70;99.90
25504;DHT22;13410;52.114;5.718;2023-10-13T00:17:42;21.80;99.90
25504;DHT22;13410;52.114;5.718;2023-10-13T00:20:09;21.90;99.90
25504;DHT22;13410;52.114;5.718;2023-10-13T00:22:41;21.90;99.90
25504;DHT22;13410;52.114;5.718;2023-10-13T00:25:07;21.80;99.90
25504;DHT22;13410;52.114;5.718;2023-10-13T00:27:37;21.80;99.90
25504;DHT22;13410;52.114;5.718;2023-10-13T00:30:07;21.70;99.90
25504;DHT22;13410;52.114;5.718;2023-10-13T00:32:58;21.70;99.90
25504;DHT22;13410;52.114;5.718;2023-10-13T00:35:26;21.80;99.90
25504;DHT22;13410;52.114;5.718;2023-10-13T00:37:58;21.80;99.90
25504;DHT22;13410;52.114;5.718;2023-10-13T00:40:30;21.90;99.90
25504;DHT22;13410;52.114;5.718;2023-10-13T00:43:00;21.80;99.90
25504;DHT22;13410;52.114;5.718;2023-10-13T00:45:51;21.90;99.90
25504;DHT22;13410;52.114;5.718;2023-10-13T00:48:44;21.60;99.90
25504;DHT22;13410;52.114;5.718;2023-10-13T00:51:19;21.60;99.90
25504;DHT22;13410;52.114;5.718;2023-10-13T00:54:02;21.60;99.90
25504;DHT22;13410;52.114;5.718;2023-10-13T00:56:33;21.60;99.90
25504;DHT22;13410;52.114;5.718;2023-10-13T00:58:59;21.60;99.90
25504;DHT22;13410;52.114;5.718;2023-10-13T01:01:28;21.70;99.90
25504;DHT22;13410;52.114;5.718;2023-10-13T01:03:55;21.60;99.90
25504;DHT22;13410;52.114;5.718;2023-10-13T01:06:30;21.60;99.90
25504;DHT22;13410;52.114;5.718;2023-10-13T01:09:01;21.60;99.90
25504;DHT22;13410;52.114;5.718;2023-10-13T01:11:36;21.60;99.90
25504;DHT22;13410;52.114;5.718;2023-10-13T01:14:01;21.50;99.90
25504;DHT22;13410;52.114;5.718;2023-10-13T01:16:29;21.50;99.90
25504;DHT22;13410;52.114;5.718;2023-10-13T01:18:55;21.60;99.90
25504;DHT22;13410;52.114;5.718;2023-10-13T01:21:25;21.50;99.90
25504;DHT22;13410;52.114;5.718;2023-10-13T01:23:53;21.60;99.90
25504;DHT22;13410;52.114;5.718;2023-10-13T01:26:19;21.70;99.90
25504;DHT22;13410;52.114;5.718;2023-10-13T01:28:52;21.70;99.90
25504;DHT22;13410;52.114;5.718;2023-10-13T01:31:21;21.70;99.90
25504;DHT22;13410;52.114;5.718;2023-10-13T01:33:53;21.70;99.90
25504;DHT22;13410;52.114;5.718;2023-10-13T01:36:26;21.60;99.90
25504;DHT22;13410;52.114;5.718;2023-10-13T01:38:52;21.70;99.90
25504;DHT22;13410;52.114;5.718;2023-10-13T01:41:20;21.60;99.90
25504;DHT22;13410;52.114;5.718;2023-10-13T01:43:46;21.60;99.90
25504;DHT22;13410;52.114;5.718;2023-10-13T01:46:11;21.60;99.90
25504;DHT22;13410;52.114;5.718;2023-10-13T01:48:47;21.60;99.90
25504;DHT22;13410;52.114;5.718;2023-10-13T01:51:12;21.60;99.90
25504;DHT22;13410;52.114;5.718;2023-10-13T01:53:38;21.60;99.90
25504;DHT22;13410;52.114;5.718;2023-10-13T01:56:05;21.70;99.90
25504;DHT22;13410;52.114;5.718;2023-10-13T01:58:36;21.60;99.90
25504;DHT22;13410;52.114;5.718;2023-10-13T02:01:02;21.50;99.90
25504;DHT22;13410;52.114;5.718;2023-10-13T02:03:32;21.50;99.90
25504;DHT22;13410;52.114;5.718;2023-10-13T02:05:58;21.50;99.90
25504;DHT22;13410;52.114;5.718;2023-10-13T02:08:30;21.50;99.90
25504;DHT22;13410;52.114;5.718;2023-10-13T02:10:57;21.60;99.90
25504;DHT22;13410;52.114;5.718;2023-10-13T02:13:24;21.60;99.90
25504;DHT22;13410;52.114;5.718;2023-10-13T02:15:53;21.70;99.90
25504;DHT22;13410;52.114;5.718;2023-10-13T02:18:22;21.70;99.90
25504;DHT22;13410;52.114;5.718;2023-10-13T02:21:07;21.60;99.90
25504;DHT22;13410;52.114;5.718;2023-10-13T02:23:39;21.70;99.90
25504;DHT22;13410;52.114;5.718;2023-10-13T02:26:13;21.60;99.90
25504;DHT22;13410;52.114;5.718;2023-10-13T02:28:55;21.60;99.90
25504;DHT22;13410;52.114;5.718;2023-10-13T02:31:22;21.40;99.90
25504;DHT22;13410;52.114;5.718;2023-10-13T02:33:50;21.40;99.90
25504;DHT22;13410;52.114;5.718;2023-10-13T02:36:16;21.40;99.90
25504;DHT22;13410;52.114;5.718;2023-10-13T02:38:51;21.50;99.90
25504;DHT22;13410;52.114;5.718;2023-10-13T02:41:18;21.50;99.90
25504;DHT22;13410;52.114;5.718;2023-10-13T02:43:51;21.40;99.90
25504;DHT22;13410;52.114;5.718;2023-10-13T02:46:19;21.50;99.90
25504;DHT22;13410;52.114;5.718;2023-10-13T02:48:47;21.60;99.90
25504;DHT22;13410;52.114;5.718;2023-10-13T02:51:18;21.50;99.90
25504;DHT22;13410;52.114;5.718;2023-10-13T02:53:47;21.60;99.90
25504;DHT22;13410;52.114;5.718;2023-10-13T02:56:16;21.50;99.90
25504;DHT22;13410;52.114;5.718;2023-10-13T02:58:49;21.60;99.90
25504;DHT22;13410;52.114;5.718;2023-10-13T03:01:34;21.50;99.90
25504;DHT22;13410;52.114;5.718;2023-10-13T03:04:01;21.50;99.90
25504;DHT22;13410;52.114;5.718;2023-10-13T03:06:28;21.50;99.90
25504;DHT22;13410;52.114;5.718;2023-10-13T03:09:04;21.60;99.90
25504;DHT22;13410;52.114;5.718;2023-10-13T03:11:47;21.60;99.90
25504;DHT22;13410;52.114;5.718;2023-10-13T03:16:56;21.60;99.90
25504;DHT22;13410;52.114;5.718;2023-10-13T03:19:32;21.70;99.90
25504;DHT22;13410;52.114;5.718;2023-10-13T03:22:05;21.70;99.90
25504;DHT22;13410;52.114;5.718;2023-10-13T03:24:35;21.70;99.90
25504;DHT22;13410;52.114;5.718;2023-10-13T03:27:02;21.70;99.90
25504;DHT22;13410;52.114;5.718;2023-10-13T03:29:36;21.70;99.90
25504;DHT22;13410;52.114;5.718;2023-10-13T03:32:02;21.70;99.90
25504;DHT22;13410;52.114;5.718;2023-10-13T03:34:39;21.70;99.90
25504;DHT22;13410;52.114;5.718;2023-10-13T03:37:18;21.60;99.90
25504;DHT22;13410;52.114;5.718;2023-10-13T03:39:45;21.60;99.90
25504;DHT22;13410;52.114;5.718;2023-10-13T03:42:11;21.60;99.90
25504;DHT22;13410;52.114;5.718;2023-10-13T03:44:47;21.60;99.90
25504;DHT22;13410;52.114;5.718;2023-10-13T03:47:13;21.50;99.90
25504;DHT22;13410;52.114;5.718;2023-10-13T03:49:53;21.50;99.90
25504;DHT22;13410;52.114;5.718;2023-10-13T03:52:38;21.60;99.90
25504;DHT22;13410;52.114;5.718;2023-10-13T03:55:04;21.60;99.90
25504;DHT22;13410;52.114;5.718;2023-10-13T03:57:31;21.50;99.90
25504;DHT22;13410;52.114;5.718;2023-10-13T03:59:59;21.40;99.90
25504;DHT22;13410;52.114;5.718;2023-10-13T04:02:33;21.50;99.90
25504;DHT22;13410;52.114;5.718;2023-10-13T04:04:59;21.40;99.90
25504;DHT22;13410;52.114;5.718;2023-10-13T04:07:33;21.60;99.90
25504;DHT22;13410;52.114;5.718;2023-10-13T04:10:04;21.40;99.90
25504;DHT22;13410;52.114;5.718;2023-10-13T04:12:48;21.40;99.90
25504;DHT22;13410;52.114;5.718;2023-10-13T04:15:32;21.60;99.90
25504;DHT22;13410;52.114;5.718;2023-10-13T04:18:09;21.40;99.90
25504;DHT22;13410;52.114;5.718;2023-10-13T04:20:59;21.40;99.90
25504;DHT22;13410;52.114;5.718;2023-10-13T04:23:33;21.40;99.90
25504;DHT22;13410;52.114;5.718;2023-10-13T04:26:18;21.40;99.90
25504;DHT22;13410;52.114;5.718;2023-10-13T04:28:48;21.40;99.90
25504;DHT22;13410;52.114;5.718;2023-10-13T04:31:17;21.40;99.90
25504;DHT22;13410;52.114;5.718;2023-10-13T04:34:02;21.50;99.90
25504;DHT22;13410;52.114;5.718;2023-10-13T04:36:28;21.30;99.90
25504;DHT22;13410;52.114;5.718;2023-10-13T04:38:58;21.40;99.90
25504;DHT22;13410;52.114;5.718;2023-10-13T04:41:33;21.30;99.90
25504;DHT22;13410;52.114;5.718;2023-10-13T04:44:09;21.40;99.90
25504;DHT22;13410;52.114;5.718;2023-10-13T04:46:54;21.10;99.90
25504;DHT22;13410;52.114;5.718;2023-10-13T04:49:34;21.20;99.90
25504;DHT22;13410;52.114;5.718;2023-10-13T04:52:01;21.10;99.90
25504;DHT22;13410;52.114;5.718;2023-10-13T04:54:39;21.20;99.90
25504;DHT22;13410;52.114;5.718;2023-10-13T04:57:18;21.30;99.90
25504;DHT22;13410;52.114;5.718;2023-10-13T04:59:47;21.10;99.90
25504;DHT22;13410;52.114;5.718;2023-10-13T05:02:32;21.10;99.90
25504;DHT22;13410;52.114;5.718;2023-10-13T05:05:04;21.10;99.90
25504;DHT22;13410;52.114;5.718;2023-10-13T05:07:35;21.00;99.90
25504;DHT22;13410;52.114;5.718;2023-10-13T05:10:19;21.00;99.90
25504;DHT22;13410;52.114;5.718;2023-10-13T05:13:03;20.80;99.90
25504;DHT22;13410;52.114;5.718;2023-10-13T05:15:49;20.90;99.90
25504;DHT22;13410;52.114;5.718;2023-10-13T05:18:33;21.00;99.90
25504;DHT22;13410;52.114;5.718;2023-10-13T05:21:18;21.10;99.90
25504;DHT22;13410;52.114;5.718;2023-10-13T05:24:03;21.10;99.90
25504;DHT22;13410;52.114;5.718;2023-10-13T05:26:47;21.10;99.90
25504;DHT22;13410;52.114;5.718;2023-10-13T05:29:32;21.20;99.90
25504;DHT22;13410;52.114;5.718;2023-10-13T05:32:16;21.40;99.90
25504;DHT22;13410;52.114;5.718;2023-10-13T05:35:00;21.30;99.90
25504;DHT22;13410;52.114;5.718;2023-10-13T05:37:43;21.20;99.90
25504;DHT22;13410;52.114;5.718;2023-10-13T05:40:28;21.20;99.90
25504;DHT22;13410;52.114;5.718;2023-10-13T05:43:12;21.10;99.90
25504;DHT22;13410;52.114;5.718;2023-10-13T05:46:01;21.10;99.90
25504;DHT22;13410;52.114;5.718;2023-10-13T05:49:02;21.00;99.90
25504;DHT22;13410;52.114;5.718;2023-10-13T05:51:29;21.00;99.90
25504;DHT22;13410;52.114;5.718;2023-10-13T05:54:04;20.90;99.90
25504;DHT22;13410;52.114;5.718;2023-10-13T05:56:50;20.90;99.90
25504;DHT22;13410;52.114;5.718;2023-10-13T05:59:35;20.80;99.90
25504;DHT22;13410;52.114;5.718;2023-10-13T06:02:21;20.90;99.90
25504;DHT22;13410;52.114;5.718;2023-10-13T06:05:07;20.90;99.90
25504;DHT22;13410;52.114;5.718;2023-10-13T06:07:51;21.10;99.90
25504;DHT22;13410;52.114;5.718;2023-10-13T06:10:36;21.20;99.90
25504;DHT22;13410;52.114;5.718;2023-10-13T06:13:20;21.40;99.90
25504;DHT22;13410;52.114;5.718;2023-10-13T06:16:15;21.40;99.90
25504;DHT22;13410;52.114;5.718;2023-10-13T06:18:59;21.60;99.90
25504;DHT22;13410;52.114;5.718;2023-10-13T06:21:44;21.70;99.90
25504;DHT22;13410;52.114;5.718;2023-10-13T06:24:29;21.80;99.90
25504;DHT22;13410;52.114;5.718;2023-10-13T06:27:14;21.70;99.90
25504;DHT22;13410;52.114;5.718;2023-10-13T06:29:58;21.80;99.90
25504;DHT22;13410;52.114;5.718;2023-10-13T06:32:26;21.90;99.90
25504;DHT22;13410;52.114;5.718;2023-10-13T06:34:52;21.90;99.90
25504;DHT22;13410;52.114;5.718;2023-10-13T06:37:26;21.90;99.90
25504;DHT22;13410;52.114;5.718;2023-10-13T06:40:09;22.20;99.90
25504;DHT22;13410;52.114;5.718;2023-10-13T06:42:50;22.10;99.90
25504;DHT22;13410;52.114;5.718;2023-10-13T06:45:15;22.10;99.90
25504;DHT22;13410;52.114;5.718;2023-10-13T06:47:42;22.00;99.90
25504;DHT22;13410;52.114;5.718;2023-10-13T06:50:12;22.10;99.90
25504;DHT22;13410;52.114;5.718;2023-10-13T06:52:42;22.20;99.90
25504;DHT22;13410;52.114;5.718;2023-10-13T06:55:08;22.20;99.90
25504;DHT22;13410;52.114;5.718;2023-10-13T06:57:45;22.30;99.90
25504;DHT22;13410;52.114;5.718;2023-10-13T07:00:12;22.30;99.90
25504;DHT22;13410;52.114;5.718;2023-10-13T07:02:48;22.50;99.90
25504;DHT22;13410;52.114;5.718;2023-10-13T07:05:17;22.50;99.90
25504;DHT22;13410;52.114;5.718;2023-10-13T07:07:43;22.40;99.90
25504;DHT22;13410;52.114;5.718;2023-10-13T07:10:10;22.40;99.90
25504;DHT22;13410;52.114;5.718;2023-10-13T07:12:37;22.40;99.90
25504;DHT22;13410;52.114;5.718;2023-10-13T07:15:04;22.30;99.90
25504;DHT22;13410;52.114;5.718;2023-10-13T07:17:48;22.20;99.90
25504;DHT22;13410;52.114;5.718;2023-10-13T07:20:20;22.20;99.90
25504;DHT22;13410;52.114;5.718;2023-10-13T07:22:55;22.00;99.90
25504;DHT22;13410;52.114;5.718;2023-10-13T07:25:23;22.10;99.90
25504;DHT22;13410;52.114;5.718;2023-10-13T07:27:51;22.20;99.90
25504;DHT22;13410;52.114;5.718;2023-10-13T07:30:17;22.00;99.90
25504;DHT22;13410;52.114;5.718;2023-10-13T07:32:45;22.20;99.90
25504;DHT22;13410;52.114;5.718;2023-10-13T07:35:15;22.30;99.90
25504;DHT22;13410;52.114;5.718;2023-10-13T07:37:43;22.30;99.90
25504;DHT22;13410;52.114;5.718;2023-10-13T07:40:10;22.10;99.90
25504;DHT22;13410;52.114;5.718;2023-10-13T07:42:52;22.00;99.90
25504;DHT22;13410;52.114;5.718;2023-10-13T07:45:18;22.10;99.90
25504;DHT22;13410;52.114;5.718;2023-10-13T07:47:47;22.20;99.90
25504;DHT22;13410;52.114;5.718;2023-10-13T07:50:12;22.20;99.90
25504;DHT22;13410;52.114;5.718;2023-10-13T07:52:38;22.30;99.90
25504;DHT22;13410;52.114;5.718;2023-10-13T07:55:19;22.30;99.90
25504;DHT22;13410;52.114;5.718;2023-10-13T07:57:47;22.20;99.90
25504;DHT22;13410;52.114;5.718;2023-10-13T08:00:23;22.10;99.90
25504;DHT22;13410;52.114;5.718;2023-10-13T08:03:04;22.10;99.90
25504;DHT22;13410;52.114;5.718;2023-10-13T08:05:42;22.10;99.90
25504;DHT22;13410;52.114;5.718;2023-10-13T08:08:23;22.10;99.90
25504;DHT22;13410;52.114;5.718;2023-10-13T08:10:57;22.30;99.90
25504;DHT22;13410;52.114;5.718;2023-10-13T08:13:26;22.40;99.90
25504;DHT22;13410;52.114;5.718;2023-10-13T08:15:52;22.40;99.90
25504;DHT22;13410;52.114;5.718;2023-10-13T08:18:18;22.30;99.90
25504;DHT22;13410;52.114;5.718;2023-10-13T08:21:05;22.20;99.90
25504;DHT22;13410;52.114;5.718;2023-10-13T08:23:32;22.30;99.90
25504;DHT22;13410;52.114;5.718;2023-10-13T08:26:27;22.40;99.90
25504;DHT22;13410;52.114;5.718;2023-10-13T08:28:59;22.60;99.90
25504;DHT22;13410;52.114;5.718;2023-10-13T08:31:44;22.90;99.90
25504;DHT22;13410;52.114;5.718;2023-10-13T08:34:15;23.00;99.90
25504;DHT22;13410;52.114;5.718;2023-10-13T08:36:48;23.20;99.90
25504;DHT22;13410;52.114;5.718;2023-10-13T08:39:14;22.90;99.90
25504;DHT22;13410;52.114;5.718;2023-10-13T08:41:59;22.90;99.90
25504;DHT22;13410;52.114;5.718;2023-10-13T08:44:44;23.10;99.90
25504;DHT22;13410;52.114;5.718;2023-10-13T08:47:14;23.10;99.90
25504;DHT22;13410;52.114;5.718;2023-10-13T08:49:44;23.10;99.90
25504;DHT22;13410;52.114;5.718;2023-10-13T08:52:17;23.40;99.90
25504;DHT22;13410;52.114;5.718;2023-10-13T08:55:04;23.40;99.90
25504;DHT22;13410;52.114;5.718;2023-10-13T08:57:58;23.30;99.90
25504;DHT22;13410;52.114;5.718;2023-10-13T09:00:28;23.60;99.90
25504;DHT22;13410;52.114;5.718;2023-10-13T09:03:14;23.70;99.90
25504;DHT22;13410;52.114;5.718;2023-10-13T09:06:03;23.80;99.90
25504;DHT22;13410;52.114;5.718;2023-10-13T09:08:32;23.70;99.90
25504;DHT22;13410;52.114;5.718;2023-10-13T09:11:32;23.80;99.90
25504;DHT22;13410;52.114;5.718;2023-10-13T09:14:15;23.50;99.90
25504;DHT22;13410;52.114;5.718;2023-10-13T09:17:05;23.50;99.90
25504;DHT22;13410;52.114;5.718;2023-10-13T09:19:51;23.50;99.90
25504;DHT22;13410;52.114;5.718;2023-10-13T09:22:27;23.40;99.90
25504;DHT22;13410;52.114;5.718;2023-10-13T09:24:59;23.60;99.90
25504;DHT22;13410;52.114;5.718;2023-10-13T09:27:30;23.70;99.90
25504;DHT22;13410;52.114;5.718;2023-10-13T09:30:03;23.70;99.90
25504;DHT22;13410;52.114;5.718;2023-10-13T09:32:43;23.80;99.90
25504;DHT22;13410;52.114;5.718;2023-10-13T09:35:19;23.70;99.90
25504;DHT22;13410;52.114;5.718;2023-10-13T09:37:49;23.40;99.90
25504;DHT22;13410;52.114;5.718;2023-10-13T09:40:18;23.50;99.90
25504;DHT22;13410;52.114;5.718;2023-10-13T09:43:04;23.50;99.90
25504;DHT22;13410;52.114;5.718;2023-10-13T09:45:35;23.60;99.90
25504;DHT22;13410;52.114;5.718;2023-10-13T09:48:23;23.50;99.90
25504;DHT22;13410;52.114;5.718;2023-10-13T09:50:54;23.60;99.90
25504;DHT22;13410;52.114;5.718;2023-10-13T09:53:22;23.70;99.90
25504;DHT22;13410;52.114;5.718;2023-10-13T09:55:54;23.70;99.90
25504;DHT22;13410;52.114;5.718;2023-10-13T09:58:24;23.60;99.90
25504;DHT22;13410;52.114;5.718;2023-10-13T10:00:57;23.60;99.90
25504;DHT22;13410;52.114;5.718;2023-10-13T10:03:45;23.70;99.90
25504;DHT22;13410;52.114;5.718;2023-10-13T10:06:23;23.60;99.90
25504;DHT22;13410;52.114;5.718;2023-10-13T10:09:08;23.60;99.90
25504;DHT22;13410;52.114;5.718;2023-10-13T10:17:28;23.40;99.90
25504;DHT22;13410;52.114;5.718;2023-10-13T10:19:55;23.40;99.90
25504;DHT22;13410;52.114;5.718;2023-10-13T10:22:29;23.40;99.90
25504;DHT22;13410;52.114;5.718;2023-10-13T10:25:03;23.50;99.90
25504;DHT22;13410;52.114;5.718;2023-10-13T10:27:32;23.50;99.90
25504;DHT22;13410;52.114;5.718;2023-10-13T10:29:58;23.70;99.90
25504;DHT22;13410;52.114;5.718;2023-10-13T10:32:38;23.70;99.90
25504;DHT22;13410;52.114;5.718;2023-10-13T10:35:08;23.90;99.90
25504;DHT22;13410;52.114;5.718;2023-10-13T10:37:40;23.80;99.90
25504;DHT22;13410;52.114;5.718;2023-10-13T10:40:18;23.70;99.90
25504;DHT22;13410;52.114;5.718;2023-10-13T10:43:03;23.60;99.90
25504;DHT22;13410;52.114;5.718;2023-10-13T10:45:35;23.50;99.90
25504;DHT22;13410;52.114;5.718;2023-10-13T10:48:02;23.60;99.90
25504;DHT22;13410;52.114;5.718;2023-10-13T10:50:44;23.60;99.90
25504;DHT22;13410;52.114;5.718;2023-10-13T10:53:09;23.90;99.90
25504;DHT22;13410;52.114;5.718;2023-10-13T10:55:36;24.10;99.90
25504;DHT22;13410;52.114;5.718;2023-10-13T10:58:02;24.20;99.90
25504;DHT22;13410;52.114;5.718;2023-10-13T11:00:32;24.30;99.90
25504;DHT22;13410;52.114;5.718;2023-10-13T11:03:12;24.40;99.90
25504;DHT22;13410;52.114;5.718;2023-10-13T11:05:47;24.70;99.90
25504;DHT22;13410;52.114;5.718;2023-10-13T11:08:24;24.70;99.90
25504;DHT22;13410;52.114;5.718;2023-10-13T11:10:58;24.90;99.90
25504;DHT22;13410;52.114;5.718;2023-10-13T11:13:25;25.00;99.90
25504;DHT22;13410;52.114;5.718;2023-10-13T11:15:56;25.30;99.90
25504;DHT22;13410;52.114;5.718;2023-10-13T11:18:29;25.40;99.90
25504;DHT22;13410;52.114;5.718;2023-10-13T11:21:03;25.40;99.90
25504;DHT22;13410;52.114;5.718;2023-10-13T11:23:33;25.30;99.90
25504;DHT22;13410;52.114;5.718;2023-10-13T11:26:02;25.30;99.90
25504;DHT22;13410;52.114;5.718;2023-10-13T11:28:30;25.20;99.90
25504;DHT22;13410;52.114;5.718;2023-10-13T11:30:58;25.00;99.90
25504;DHT22;13410;52.114;5.718;2023-10-13T11:33:26;25.00;99.90
25504;DHT22;13410;52.114;5.718;2023-10-13T11:35:58;24.90;99.90
25504;DHT22;13410;52.114;5.718;2023-10-13T11:41:04;24.90;99.90
25504;DHT22;13410;52.114;5.718;2023-10-13T11:43:38;24.90;99.90
25504;DHT22;13410;52.114;5.718;2023-10-13T11:46:10;24.90;99.90
25504;DHT22;13410;52.114;5.718;2023-10-13T11:48:40;24.80;99.90
25504;DHT22;13410;52.114;5.718;2023-10-13T11:51:11;24.70;99.90
25504;DHT22;13410;52.114;5.718;2023-10-13T11:53:44;24.80;99.90
25504;DHT22;13410;52.114;5.718;2023-10-13T11:56:18;24.80;99.90
25504;DHT22;13410;52.114;5.718;2023-10-13T11:58:46;24.60;99.90
25504;DHT22;13410;52.114;5.718;2023-10-13T12:01:12;24.80;99.90
25504;DHT22;13410;52.114;5.718;2023-10-13T12:03:45;24.60;99.90
25504;DHT22;13410;52.114;5.718;2023-10-13T12:06:31;24.80;99.90
25504;DHT22;13410;52.114;5.718;2023-10-13T12:09:10;24.80;99.90
25504;DHT22;13410;52.114;5.718;2023-10-13T12:11:42;24.60;99.90
25504;DHT22;13410;52.114;5.718;2023-10-13T12:14:14;24.70;99.90
25504;DHT22;13410;52.114;5.718;2023-10-13T12:17:04;24.70;99.90
25504;DHT22;13410;52.114;5.718;2023-10-13T12:19:30;24.80;99.90
25504;DHT22;13410;52.114;5.718;2023-10-13T12:21:57;24.90;99.90
25504;DHT22;13410;52.114;5.718;2023-10-13T12:24:24;25.10;99.90
25504;DHT22;13410;52.114;5.718;2023-10-13T12:27:06;25.20;99.90
25504;DHT22;13410;52.114;5.718;2023-10-13T12:29:50;25.10;99.90
25504;DHT22;13410;52.114;5.718;2023-10-13T12:32:17;25.10;99.90
25504;DHT22;13410;52.114;5.718;2023-10-13T12:34:56;25.00;99.90
25504;DHT22;13410;52.114;5.718;2023-10-13T12:37:31;25.30;99.90
25504;DHT22;13410;52.114;5.718;2023-10-13T12:40:12;25.10;99.90
25504;DHT22;13410;52.114;5.718;2023-10-13T12:42:56;25.10;99.90
25504;DHT22;13410;52.114;5.718;2023-10-13T12:45:41;24.90;99.90
25504;DHT22;13410;52.114;5.718;2023-10-13T12:48:25;25.00;99.90
25504;DHT22;13410;52.114;5.718;2023-10-13T12:51:09;25.10;99.90
25504;DHT22;13410;52.114;5.718;2023-10-13T12:53:54;25.10;99.90
25504;DHT22;13410;52.114;5.718;2023-10-13T12:56:20;25.10;99.90
25504;DHT22;13410;52.114;5.718;2023-10-13T12:58:51;25.10;99.90
25504;DHT22;13410;52.114;5.718;2023-10-13T13:01:18;25.30;99.90
25504;DHT22;13410;52.114;5.718;2023-10-13T13:03:46;25.30;99.90
25504;DHT22;13410;52.114;5.718;2023-10-13T13:06:25;25.20;99.90
25504;DHT22;13410;52.114;5.718;2023-10-13T13:08:57;25.10;99.90
25504;DHT22;13410;52.114;5.718;2023-10-13T13:11:24;25.10;99.90
25504;DHT22;13410;52.114;5.718;2023-10-13T13:13:51;25.20;99.90
25504;DHT22;13410;52.114;5.718;2023-10-13T13:16:17;25.20;99.90
25504;DHT22;13410;52.114;5.718;2023-10-13T13:18:55;25.00;99.90
25504;DHT22;13410;52.114;5.718;2023-10-13T13:21:21;25.10;99.90
25504;DHT22;13410;52.114;5.718;2023-10-13T13:23:53;25.00;99.90
25504;DHT22;13410;52.114;5.718;2023-10-13T13:26:24;25.20;99.90
25504;DHT22;13410;52.114;5.718;2023-10-13T13:28:51;25.10;99.90
25504;DHT22;13410;52.114;5.718;2023-10-13T13:31:17;25.00;99.90
25504;DHT22;13410;52.114;5.718;2023-10-13T13:33:42;25.00;99.90
25504;DHT22;13410;52.114;5.718;2023-10-13T13:36:11;25.10;99.90
25504;DHT22;13410;52.114;5.718;2023-10-13T13:38:41;24.90;99.90
25504;DHT22;13410;52.114;5.718;2023-10-13T13:41:13;25.00;99.90
25504;DHT22;13410;52.114;5.718;2023-10-13T13:43:46;24.70;99.90
25504;DHT22;13410;52.114;5.718;2023-10-13T13:46:18;24.60;99.90
25504;DHT22;13410;52.114;5.718;2023-10-13T13:48:44;24.50;99.90
25504;DHT22;13410;52.114;5.718;2023-10-13T13:51:13;24.50;99.90
25504;DHT22;13410;52.114;5.718;2023-10-13T13:53:45;24.60;99.90
25504;DHT22;13410;52.114;5.718;2023-10-13T13:56:13;24.50;99.90
25504;DHT22;13410;52.114;5.718;2023-10-13T13:58:44;24.40;99.90
25504;DHT22;13410;52.114;5.718;2023-10-13T14:01:10;24.20;99.90
25504;DHT22;13410;52.114;5.718;2023-10-13T14:03:41;24.10;99.90
25504;DHT22;13410;52.114;5.718;2023-10-13T14:06:17;23.90;99.90
25504;DHT22;13410;52.114;5.718;2023-10-13T14:08:45;24.00;99.90
25504;DHT22;13410;52.114;5.718;2023-10-13T14:11:14;24.00;99.90
25504;DHT22;13410;52.114;5.718;2023-10-13T14:13:49;24.00;99.90
25504;DHT22;13410;52.114;5.718;2023-10-13T14:16:23;23.80;99.90
25504;DHT22;13410;52.114;5.718;2023-10-13T14:18:50;23.70;99.90
25504;DHT22;13410;52.114;5.718;2023-10-13T14:21:17;23.60;99.90
25504;DHT22;13410;52.114;5.718;2023-10-13T14:23:48;23.60;99.90
25504;DHT22;13410;52.114;5.718;2023-10-13T14:26:18;23.60;99.90
25504;DHT22;13410;52.114;5.718;2023-10-13T14:28:50;23.60;99.90
25504;DHT22;13410;52.114;5.718;2023-10-13T14:31:28;23.50;99.90
25504;DHT22;13410;52.114;5.718;2023-10-13T14:33:54;23.60;99.90
25504;DHT22;13410;52.114;5.718;2023-10-13T14:36:19;23.60;99.90
25504;DHT22;13410;52.114;5.718;2023-10-13T14:38:46;23.30;99.90
25504;DHT22;13410;52.114;5.718;2023-10-13T14:41:15;23.20;99.90
25504;DHT22;13410;52.114;5.718;2023-10-13T14:43:42;23.10;99.90
25504;DHT22;13410;52.114;5.718;2023-10-13T14:46:19;23.00;99.90
25504;DHT22;13410;52.114;5.718;2023-10-13T14:48:54;22.90;99.90
25504;DHT22;13410;52.114;5.718;2023-10-13T14:51:20;23.00;99.90
25504;DHT22;13410;52.114;5.718;2023-10-13T14:53:46;22.80;99.90
25504;DHT22;13410;52.114;5.718;2023-10-13T14:56:16;22.70;99.90
25504;DHT22;13410;52.114;5.718;2023-10-13T14:58:43;22.80;99.90
25504;DHT22;13410;52.114;5.718;2023-10-13T15:03:46;22.70;99.90
25504;DHT22;13410;52.114;5.718;2023-10-13T15:06:22;22.70;99.90
25504;DHT22;13410;52.114;5.718;2023-10-13T15:08:56;22.80;99.90
25504;DHT22;13410;52.114;5.718;2023-10-13T15:11:23;22.80;99.90
25504;DHT22;13410;52.114;5.718;2023-10-13T15:14:05;22.70;99.90
25504;DHT22;13410;52.114;5.718;2023-10-13T15:16:32;22.70;99.90
25504;DHT22;13410;52.114;5.718;2023-10-13T15:18:59;22.80;99.90
25504;DHT22;13410;52.114;5.718;2023-10-13T15:21:29;23.00;99.90
25504;DHT22;13410;52.114;5.718;2023-10-13T15:24:05;22.90;99.90
25504;DHT22;13410;52.114;5.718;2023-10-13T15:26:40;22.90;99.90
25504;DHT22;13410;52.114;5.718;2023-10-13T15:29:10;22.90;99.90
25504;DHT22;13410;52.114;5.718;2023-10-13T15:31:38;23.10;99.90
25504;DHT22;13410;52.114;5.718;2023-10-13T15:34:11;23.10;99.90
25504;DHT22;13410;52.114;5.718;2023-10-13T15:36:41;23.00;99.90
25504;DHT22;13410;52.114;5.718;2023-10-13T15:39:08;22.90;99.90
25504;DHT22;13410;52.114;5.718;2023-10-13T15:41:36;22.90;99.90
25504;DHT22;13410;52.114;5.718;2023-10-13T15:44:04;22.80;99.90
25504;DHT22;13410;52.114;5.718;2023-10-13T15:46:35;22.90;99.90
25504;DHT22;13410;52.114;5.718;2023-10-13T15:49:01;22.90;99.90
25504;DHT22;13410;52.114;5.718;2023-10-13T15:51:32;22.80;99.90
25504;DHT22;13410;52.114;5.718;2023-10-13T15:53:57;22.90;99.90
25504;DHT22;13410;52.114;5.718;2023-10-13T15:56:26;22.80;99.90
25504;DHT22;13410;52.114;5.718;2023-10-13T15:58:51;22.80;99.90
25504;DHT22;13410;52.114;5.718;2023-10-13T16:01:17;22.80;99.90
25504;DHT22;13410;52.114;5.718;2023-10-13T16:03:44;22.70;99.90
25504;DHT22;13410;52.114;5.718;2023-10-13T16:06:15;22.80;99.90
25504;DHT22;13410;52.114;5.718;2023-10-13T16:08:41;22.70;99.90
25504;DHT22;13410;52.114;5.718;2023-10-13T16:11:14;22.90;99.90
25504;DHT22;13410;52.114;5.718;2023-10-13T16:13:40;22.90;99.90
25504;DHT22;13410;52.114;5.718;2023-10-13T16:16:14;23.00;99.90
25504;DHT22;13410;52.114;5.718;2023-10-13T16:18:41;23.00;99.90
25504;DHT22;13410;52.114;5.718;2023-10-13T16:21:09;23.10;99.90